SWA120 KMDW-KCMH
Flight info
| Callsign | SWA120 |
|---|---|
| Flight time | 0h 45m |
| Altitude | 29000 |
| Route | LEWKE GIJ SEWTO FWA BRYEN DUBLN1 |
| Aircraft | B736/M-SDE2E3FGHIRWXY/LB1 |
Departure
| Time | 2026-05-08 23:24 |
|---|---|
| Airport | Chicago Midway International Airport (KMDW) |
Arrival
| Time | 2026-05-09 00:10 |
|---|---|
| Airport | John Glenn Columbus International Airport (KCMH) |
| Time | Latitude | Longitude | Altitude | Speed | Heading |
|---|---|---|---|---|---|
| 2026-05-08 22:59 | 41.78537 | -87.74358 | 632 ft | 0 kts | 129° |
| 2026-05-08 23:16 | 41.78544 | -87.74370 | 628 ft | 4 kts | 128° |
| 2026-05-08 23:16 | 41.78561 | -87.74398 | 628 ft | 4 kts | 136° |
| 2026-05-08 23:16 | 41.78580 | -87.74415 | 628 ft | 4 kts | 192° |
| 2026-05-08 23:17 | 41.78586 | -87.74412 | 635 ft | 1 kts | 223° |
| 2026-05-08 23:20 | 41.78570 | -87.74432 | 640 ft | 7 kts | 224° |
| 2026-05-08 23:20 | 41.78528 | -87.74484 | 628 ft | 9 kts | 219° |
| 2026-05-08 23:21 | 41.78477 | -87.74556 | 629 ft | 11 kts | 240° |
| 2026-05-08 23:21 | 41.78508 | -87.74643 | 628 ft | 11 kts | 313° |
| 2026-05-08 23:21 | 41.78563 | -87.74723 | 628 ft | 12 kts | 313° |
| 2026-05-08 23:21 | 41.78617 | -87.74809 | 636 ft | 12 kts | 283° |
| 2026-05-08 23:22 | 41.78572 | -87.74896 | 628 ft | 12 kts | 225° |
| 2026-05-08 23:22 | 41.78507 | -87.74980 | 630 ft | 15 kts | 225° |
| 2026-05-08 23:22 | 41.78424 | -87.75088 | 633 ft | 18 kts | 223° |
| 2026-05-08 23:22 | 41.78323 | -87.75215 | 629 ft | 21 kts | 223° |
| 2026-05-08 23:23 | 41.78208 | -87.75362 | 631 ft | 24 kts | 224° |
| 2026-05-08 23:23 | 41.78091 | -87.75510 | 630 ft | 23 kts | 223° |
| 2026-05-08 23:23 | 41.77978 | -87.75652 | 633 ft | 22 kts | 224° |
| 2026-05-08 23:23 | 41.77921 | -87.75834 | 627 ft | 22 kts | 292° |
| 2026-05-08 23:24 | 41.78083 | -87.75720 | 629 ft | 58 kts | 44° |
| 2026-05-08 23:24 | 41.78568 | -87.75104 | 635 ft | 131 kts | 45° |
| 2026-05-08 23:24 | 41.79275 | -87.74113 | 985 ft | 158 kts | 57° |
| 2026-05-08 23:24 | 41.79711 | -87.72698 | 1571 ft | 175 kts | 86° |
| 2026-05-08 23:25 | 41.79637 | -87.70982 | 2237 ft | 184 kts | 95° |
| 2026-05-08 23:25 | 41.79518 | -87.69213 | 2803 ft | 202 kts | 96° |
| 2026-05-08 23:25 | 41.79393 | -87.67221 | 3015 ft | 230 kts | 96° |
| 2026-05-08 23:25 | 41.79275 | -87.64977 | 3378 ft | 249 kts | 95° |
| 2026-05-08 23:26 | 41.79153 | -87.62537 | 3836 ft | 272 kts | 95° |
| 2026-05-08 23:26 | 41.79027 | -87.59967 | 4617 ft | 280 kts | 94° |
| 2026-05-08 23:26 | 41.78898 | -87.57344 | 5480 ft | 284 kts | 95° |
| 2026-05-08 23:26 | 41.78767 | -87.54726 | 6391 ft | 287 kts | 95° |
| 2026-05-08 23:27 | 41.78631 | -87.52028 | 7252 ft | 293 kts | 94° |
| 2026-05-08 23:27 | 41.78491 | -87.49274 | 8117 ft | 299 kts | 94° |
| 2026-05-08 23:27 | 41.78347 | -87.46463 | 9019 ft | 306 kts | 93° |
| 2026-05-08 23:27 | 41.78198 | -87.43590 | 9936 ft | 312 kts | 93° |
| 2026-05-08 23:28 | 41.78046 | -87.40641 | 10582 ft | 328 kts | 93° |
| 2026-05-08 23:28 | 41.77880 | -87.37452 | 10854 ft | 355 kts | 93° |
| 2026-05-08 23:28 | 41.77704 | -87.34092 | 11530 ft | 366 kts | 93° |
| 2026-05-08 23:28 | 41.77522 | -87.30660 | 12431 ft | 371 kts | 93° |
| 2026-05-08 23:29 | 41.77336 | -87.27201 | 13402 ft | 375 kts | 93° |
| 2026-05-08 23:29 | 41.77148 | -87.23703 | 14200 ft | 382 kts | 93° |
| 2026-05-08 23:29 | 41.76955 | -87.20122 | 14977 ft | 389 kts | 93° |
| 2026-05-08 23:29 | 41.76758 | -87.16483 | 15790 ft | 395 kts | 93° |
| 2026-05-08 23:30 | 41.76557 | -87.12786 | 16588 ft | 402 kts | 93° |
| 2026-05-08 23:30 | 41.76351 | -87.09021 | 17400 ft | 408 kts | 93° |
| 2026-05-08 23:30 | 41.76172 | -87.05203 | 18196 ft | 414 kts | 90° |
| 2026-05-08 23:30 | 41.76148 | -87.01310 | 18881 ft | 421 kts | 88° |
| 2026-05-08 23:31 | 41.76205 | -86.97358 | 19557 ft | 427 kts | 87° |
| 2026-05-08 23:31 | 41.76286 | -86.93357 | 20237 ft | 434 kts | 87° |
| 2026-05-08 23:31 | 41.76365 | -86.89279 | 20850 ft | 442 kts | 87° |
| 2026-05-08 23:31 | 41.76412 | -86.86534 | 21275 ft | 447 kts | 88° |
| 2026-05-08 23:32 | 41.76473 | -86.82346 | 21953 ft | 453 kts | 88° |
| 2026-05-08 23:32 | 41.76524 | -86.78101 | 22625 ft | 459 kts | 88° |
| 2026-05-08 23:32 | 41.76569 | -86.73793 | 23276 ft | 466 kts | 88° |
| 2026-05-08 23:32 | 41.76623 | -86.67999 | 23995 ft | 474 kts | 88° |
| 2026-05-08 23:33 | 41.76649 | -86.65004 | 24367 ft | 478 kts | 89° |
| 2026-05-08 23:33 | 41.76688 | -86.60523 | 24918 ft | 484 kts | 89° |
| 2026-05-08 23:33 | 41.76725 | -86.55985 | 25461 ft | 490 kts | 89° |
| 2026-05-08 23:33 | 41.76761 | -86.51394 | 25938 ft | 497 kts | 89° |
| 2026-05-08 23:34 | 41.76797 | -86.46735 | 26425 ft | 503 kts | 89° |
| 2026-05-08 23:34 | 41.76832 | -86.42017 | 26944 ft | 509 kts | 90° |
| 2026-05-08 23:34 | 41.76865 | -86.37261 | 27437 ft | 514 kts | 90° |
| 2026-05-08 23:34 | 41.76896 | -86.32501 | 27921 ft | 519 kts | 90° |
| 2026-05-08 23:35 | 41.76826 | -86.27641 | 28409 ft | 523 kts | 97° |
| 2026-05-08 23:35 | 41.76109 | -86.22866 | 28781 ft | 523 kts | 112° |
| 2026-05-08 23:35 | 41.74709 | -86.18374 | 28824 ft | 523 kts | 125° |
| 2026-05-08 23:35 | 41.72732 | -86.14355 | 28823 ft | 511 kts | 138° |
| 2026-05-08 23:36 | 41.68165 | -86.07248 | 28815 ft | 496 kts | 139° |
| 2026-05-08 23:36 | 41.63646 | -86.00218 | 28840 ft | 500 kts | 139° |
| 2026-05-08 23:37 | 41.59131 | -85.93091 | 28840 ft | 503 kts | 138° |
| 2026-05-08 23:37 | 41.54625 | -85.85930 | 28843 ft | 504 kts | 138° |
| 2026-05-08 23:38 | 41.50125 | -85.78781 | 28841 ft | 502 kts | 138° |
| 2026-05-08 23:38 | 41.45640 | -85.71680 | 28843 ft | 498 kts | 138° |
| 2026-05-08 23:39 | 41.41210 | -85.64688 | 28844 ft | 495 kts | 138° |
| 2026-05-08 23:39 | 41.36770 | -85.57702 | 28852 ft | 494 kts | 138° |
| 2026-05-08 23:40 | 41.32318 | -85.50717 | 28862 ft | 495 kts | 138° |
| 2026-05-08 23:40 | 41.27857 | -85.43731 | 28851 ft | 496 kts | 138° |
| 2026-05-08 23:41 | 41.23379 | -85.36732 | 28857 ft | 496 kts | 137° |
| 2026-05-08 23:41 | 41.18921 | -85.29780 | 28868 ft | 498 kts | 137° |
| 2026-05-08 23:42 | 41.14417 | -85.22772 | 28871 ft | 499 kts | 137° |
| 2026-05-08 23:42 | 41.09908 | -85.15772 | 28870 ft | 499 kts | 137° |
| 2026-05-08 23:43 | 41.05401 | -85.08791 | 28871 ft | 498 kts | 137° |
| 2026-05-08 23:43 | 41.00875 | -85.01800 | 27968 ft | 502 kts | 137° |
| 2026-05-08 23:44 | 40.98610 | -84.98306 | 27124 ft | 498 kts | 137° |
| 2026-05-08 23:44 | 40.96369 | -84.94845 | 26458 ft | 490 kts | 137° |
| 2026-05-08 23:44 | 40.94162 | -84.91443 | 25731 ft | 485 kts | 137° |
| 2026-05-08 23:44 | 40.92000 | -84.88118 | 25039 ft | 479 kts | 137° |
| 2026-05-08 23:45 | 40.89834 | -84.84792 | 24343 ft | 474 kts | 137° |
| 2026-05-08 23:45 | 40.87692 | -84.81508 | 23654 ft | 470 kts | 137° |
| 2026-05-08 23:45 | 40.85610 | -84.78201 | 23212 ft | 468 kts | 131° |
| 2026-05-08 23:45 | 40.84110 | -84.74417 | 23050 ft | 462 kts | 116° |
| 2026-05-08 23:46 | 40.82954 | -84.70530 | 22922 ft | 447 kts | 115° |
| 2026-05-08 23:46 | 40.81852 | -84.66783 | 22867 ft | 429 kts | 115° |
| 2026-05-08 23:46 | 40.80784 | -84.63185 | 22857 ft | 412 kts | 116° |
| 2026-05-08 23:46 | 40.79745 | -84.59739 | 22860 ft | 396 kts | 116° |
| 2026-05-08 23:47 | 40.78733 | -84.56430 | 22856 ft | 382 kts | 117° |
| 2026-05-08 23:47 | 40.77739 | -84.53214 | 22860 ft | 377 kts | 117° |
| 2026-05-08 23:47 | 40.76711 | -84.49930 | 22919 ft | 399 kts | 117° |
| 2026-05-08 23:47 | 40.75613 | -84.46450 | 22916 ft | 423 kts | 117° |
| 2026-05-08 23:48 | 40.74455 | -84.42775 | 22910 ft | 445 kts | 116° |
| 2026-05-08 23:48 | 40.73247 | -84.38926 | 22912 ft | 463 kts | 116° |
| 2026-05-08 23:48 | 40.72006 | -84.34956 | 22847 ft | 467 kts | 116° |
| 2026-05-08 23:48 | 40.70782 | -84.31024 | 22270 ft | 463 kts | 116° |
| 2026-05-08 23:49 | 40.69558 | -84.27099 | 21498 ft | 462 kts | 116° |
| 2026-05-08 23:49 | 40.68347 | -84.23222 | 21171 ft | 452 kts | 116° |
| 2026-05-08 23:49 | 40.67146 | -84.19395 | 20762 ft | 454 kts | 116° |
| 2026-05-08 23:49 | 40.65947 | -84.15589 | 20255 ft | 456 kts | 115° |
| 2026-05-08 23:50 | 40.64732 | -84.11739 | 19763 ft | 454 kts | 115° |
| 2026-05-08 23:50 | 40.63511 | -84.07875 | 19262 ft | 449 kts | 115° |
| 2026-05-08 23:50 | 40.62316 | -84.04094 | 18798 ft | 445 kts | 115° |
| 2026-05-08 23:50 | 40.61130 | -84.00350 | 18356 ft | 441 kts | 115° |
| 2026-05-08 23:51 | 40.59969 | -83.96689 | 17983 ft | 435 kts | 115° |
| 2026-05-08 23:51 | 40.58809 | -83.93036 | 17573 ft | 430 kts | 115° |
| 2026-05-08 23:51 | 40.57661 | -83.89426 | 17158 ft | 425 kts | 115° |
| 2026-05-08 23:51 | 40.56524 | -83.85854 | 16771 ft | 422 kts | 115° |
| 2026-05-08 23:52 | 40.55392 | -83.82306 | 16390 ft | 419 kts | 115° |
| 2026-05-08 23:52 | 40.54266 | -83.78778 | 16015 ft | 418 kts | 115° |
| 2026-05-08 23:52 | 40.53141 | -83.75259 | 15647 ft | 417 kts | 115° |
| 2026-05-08 23:52 | 40.52021 | -83.71761 | 15270 ft | 415 kts | 115° |
| 2026-05-08 23:53 | 40.50899 | -83.68265 | 14907 ft | 413 kts | 115° |
| 2026-05-08 23:53 | 40.49782 | -83.64790 | 14542 ft | 412 kts | 115° |
| 2026-05-08 23:53 | 40.48666 | -83.61322 | 14173 ft | 410 kts | 115° |
| 2026-05-08 23:53 | 40.47563 | -83.57896 | 14026 ft | 407 kts | 115° |
| 2026-05-08 23:54 | 40.46461 | -83.54476 | 14000 ft | 406 kts | 115° |
| 2026-05-08 23:54 | 40.45357 | -83.51056 | 13992 ft | 407 kts | 115° |
| 2026-05-08 23:54 | 40.44220 | -83.47660 | 13989 ft | 406 kts | 119° |
| 2026-05-08 23:55 | 40.41034 | -83.41675 | 13180 ft | 398 kts | 131° |
| 2026-05-08 23:55 | 40.39344 | -83.38824 | 12797 ft | 393 kts | 131° |
| 2026-05-08 23:55 | 40.37693 | -83.35990 | 12431 ft | 389 kts | 131° |
| 2026-05-08 23:55 | 40.36081 | -83.33162 | 12072 ft | 385 kts | 130° |
| 2026-05-08 23:56 | 40.34497 | -83.30347 | 11721 ft | 381 kts | 130° |
| 2026-05-08 23:56 | 40.32934 | -83.27558 | 11379 ft | 378 kts | 130° |
| 2026-05-08 23:56 | 40.31382 | -83.24840 | 11042 ft | 366 kts | 134° |
| 2026-05-08 23:56 | 40.29569 | -83.22643 | 10720 ft | 348 kts | 148° |
| 2026-05-08 23:57 | 40.27671 | -83.20768 | 10407 ft | 336 kts | 149° |
| 2026-05-08 23:57 | 40.25851 | -83.18952 | 10095 ft | 320 kts | 148° |
| 2026-05-08 23:57 | 40.24143 | -83.17206 | 9810 ft | 304 kts | 148° |
| 2026-05-08 23:57 | 40.22515 | -83.15523 | 9517 ft | 294 kts | 148° |
| 2026-05-08 23:58 | 40.20928 | -83.13879 | 9240 ft | 289 kts | 147° |
| 2026-05-08 23:58 | 40.19527 | -83.11950 | 8976 ft | 298 kts | 131° |
| 2026-05-08 23:58 | 40.18394 | -83.09645 | 8725 ft | 305 kts | 127° |
| 2026-05-08 23:58 | 40.17275 | -83.07259 | 8443 ft | 309 kts | 127° |
| 2026-05-08 23:59 | 40.16155 | -83.04905 | 8144 ft | 300 kts | 128° |
| 2026-05-08 23:59 | 40.15003 | -83.02671 | 7875 ft | 293 kts | 130° |
| 2026-05-08 23:59 | 40.13846 | -83.00489 | 7605 ft | 292 kts | 130° |
| 2026-05-08 23:59 | 40.12705 | -82.98339 | 7343 ft | 291 kts | 130° |
| 2026-05-09 00:00 | 40.11555 | -82.96169 | 7078 ft | 290 kts | 130° |
| 2026-05-09 00:00 | 40.10397 | -82.94023 | 6838 ft | 287 kts | 132° |
| 2026-05-09 00:00 | 40.09279 | -82.91870 | 6602 ft | 290 kts | 121° |
| 2026-05-09 00:00 | 40.08828 | -82.89280 | 6389 ft | 296 kts | 98° |
| 2026-05-09 00:01 | 40.08696 | -82.86592 | 6152 ft | 296 kts | 97° |
| 2026-05-09 00:01 | 40.08582 | -82.83919 | 6031 ft | 294 kts | 97° |
| 2026-05-09 00:01 | 40.08471 | -82.81246 | 6007 ft | 295 kts | 97° |
| 2026-05-09 00:01 | 40.08360 | -82.78554 | 6008 ft | 297 kts | 97° |
| 2026-05-09 00:02 | 40.08251 | -82.75881 | 5726 ft | 295 kts | 96° |
| 2026-05-09 00:02 | 40.08147 | -82.73279 | 5600 ft | 278 kts | 96° |
| 2026-05-09 00:02 | 40.08057 | -82.70848 | 5489 ft | 258 kts | 96° |
| 2026-05-09 00:02 | 40.07979 | -82.68558 | 5106 ft | 249 kts | 96° |
| 2026-05-09 00:03 | 40.07901 | -82.66286 | 4578 ft | 252 kts | 97° |
| 2026-05-09 00:03 | 40.07821 | -82.64014 | 4152 ft | 248 kts | 96° |
| 2026-05-09 00:03 | 40.07490 | -82.61869 | 3748 ft | 237 kts | 121° |
| 2026-05-09 00:03 | 40.06446 | -82.60319 | 3252 ft | 222 kts | 156° |
| 2026-05-09 00:04 | 40.05010 | -82.59877 | 3080 ft | 211 kts | 191° |
| 2026-05-09 00:04 | 40.03605 | -82.60320 | 3038 ft | 205 kts | 201° |
| 2026-05-09 00:04 | 40.02280 | -82.60855 | 2993 ft | 194 kts | 202° |
| 2026-05-09 00:04 | 40.01114 | -82.61576 | 2976 ft | 180 kts | 226° |
| 2026-05-09 00:05 | 40.00472 | -82.62943 | 3005 ft | 178 kts | 244° |
| 2026-05-09 00:05 | 39.99925 | -82.64385 | 3010 ft | 181 kts | 243° |
| 2026-05-09 00:05 | 39.99363 | -82.65836 | 2915 ft | 175 kts | 243° |
| 2026-05-09 00:05 | 39.99037 | -82.67317 | 2567 ft | 173 kts | 271° |
| 2026-05-09 00:06 | 39.99147 | -82.68910 | 2557 ft | 179 kts | 270° |
| 2026-05-09 00:06 | 39.99209 | -82.70515 | 2507 ft | 174 kts | 271° |
| 2026-05-09 00:06 | 39.99284 | -82.72075 | 2496 ft | 171 kts | 271° |
| 2026-05-09 00:06 | 39.99366 | -82.73618 | 2501 ft | 167 kts | 272° |
| 2026-05-09 00:07 | 39.99444 | -82.75010 | 2509 ft | 139 kts | 272° |
| 2026-05-09 00:07 | 39.99509 | -82.76195 | 2482 ft | 124 kts | 272° |
| 2026-05-09 00:07 | 39.99570 | -82.77311 | 2403 ft | 123 kts | 271° |
| 2026-05-09 00:07 | 39.99631 | -82.78422 | 2262 ft | 123 kts | 272° |
| 2026-05-09 00:08 | 39.99692 | -82.79525 | 2096 ft | 122 kts | 272° |
| 2026-05-09 00:08 | 39.99753 | -82.80639 | 1944 ft | 124 kts | 273° |
| 2026-05-09 00:08 | 39.99816 | -82.81760 | 1772 ft | 123 kts | 272° |
| 2026-05-09 00:08 | 39.99878 | -82.82882 | 1608 ft | 125 kts | 272° |
| 2026-05-09 00:09 | 39.99940 | -82.83995 | 1439 ft | 124 kts | 273° |
| 2026-05-09 00:09 | 40.00003 | -82.85137 | 1275 ft | 126 kts | 272° |
| 2026-05-09 00:09 | 40.00068 | -82.86280 | 1099 ft | 127 kts | 274° |
| 2026-05-09 00:09 | 40.00133 | -82.87425 | 932 ft | 125 kts | 273° |
| 2026-05-09 00:10 | 40.00194 | -82.88529 | 826 ft | 114 kts | 274° |
| 2026-05-09 00:10 | 40.00237 | -82.89307 | 819 ft | 57 kts | 274° |
| 2026-05-09 00:10 | 40.00256 | -82.89676 | 817 ft | 34 kts | 262° |
| 2026-05-09 00:10 | 40.00167 | -82.89710 | 817 ft | 12 kts | 104° |
| 2026-05-09 00:11 | 40.00163 | -82.89666 | 818 ft | 4 kts | 96° |
| 2026-05-09 00:11 | 40.00159 | -82.89602 | 818 ft | 12 kts | 93° |
| 2026-05-09 00:11 | 40.00152 | -82.89457 | 819 ft | 18 kts | 94° |
| 2026-05-09 00:11 | 40.00143 | -82.89299 | 819 ft | 17 kts | 95° |
| 2026-05-09 00:12 | 40.00134 | -82.89146 | 820 ft | 17 kts | 94° |
| 2026-05-09 00:12 | 40.00126 | -82.88999 | 821 ft | 16 kts | 94° |
| 2026-05-09 00:12 | 40.00118 | -82.88858 | 822 ft | 15 kts | 95° |
| 2026-05-09 00:12 | 40.00111 | -82.88722 | 824 ft | 15 kts | 96° |
| 2026-05-09 00:13 | 40.00100 | -82.88593 | 824 ft | 14 kts | 95° |
| 2026-05-09 00:13 | 40.00096 | -82.88470 | 822 ft | 13 kts | 93° |
| 2026-05-09 00:13 | 40.00088 | -82.88351 | 821 ft | 13 kts | 97° |
| 2026-05-09 00:13 | 40.00021 | -82.88298 | 820 ft | 13 kts | 166° |
| 2026-05-09 00:14 | 39.99978 | -82.88208 | 820 ft | 12 kts | 96° |
| 2026-05-09 00:14 | 39.99971 | -82.88097 | 821 ft | 12 kts | 95° |
| 2026-05-09 00:14 | 39.99964 | -82.87989 | 820 ft | 12 kts | 98° |
| 2026-05-09 00:14 | 39.99925 | -82.87900 | 821 ft | 11 kts | 148° |
| 2026-05-09 00:15 | 39.99875 | -82.87891 | 822 ft | 2 kts | 184° |
| 2026-05-09 00:15 | 39.99871 | -82.87891 | 822 ft | 0 kts | 184° |
| 2026-05-09 00:17 | 39.99868 | -82.87892 | 822 ft | 1 kts | 184° |
| 2026-05-09 00:17 | 39.99860 | -82.87893 | 822 ft | 1 kts | 184° |
| 2026-05-09 00:17 | 39.99855 | -82.87893 | 822 ft | 0 kts | 185° |
| 2026-05-09 00:18 | 39.99854 | -82.87893 | 822 ft | 1 kts | 185° |
| 2026-05-09 00:18 | 39.99839 | -82.87895 | 822 ft | 4 kts | 185° |
| 2026-05-09 00:18 | 39.99802 | -82.87899 | 822 ft | 6 kts | 184° |
| 2026-05-09 00:18 | 39.99776 | -82.87901 | 822 ft | 2 kts | 184° |
| 2026-05-09 00:19 | 39.99755 | -82.87903 | 822 ft | 5 kts | 184° |
| 2026-05-09 00:19 | 39.99680 | -82.87910 | 822 ft | 16 kts | 183° |
| 2026-05-09 00:19 | 39.99602 | -82.88003 | 821 ft | 19 kts | 270° |
| 2026-05-09 00:19 | 39.99611 | -82.88175 | 818 ft | 19 kts | 275° |
| 2026-05-09 00:20 | 39.99612 | -82.88342 | 818 ft | 16 kts | 280° |
| 2026-05-09 00:20 | 39.99640 | -82.88384 | 819 ft | 3 kts | 334° |
| 2026-05-09 00:20 | 39.99652 | -82.88390 | 820 ft | 1 kts | 336° |
| 2026-05-09 00:20 | 39.99655 | -82.88392 | 820 ft | 0 kts | 336° |
| 2026-05-09 00:21 | 39.99656 | -82.88392 | 820 ft | 0 kts | 336° |